Time;durP1;ratioP1;P1;durP2;ratioP2;P2;SDS_P1;SDS_P2;PMS_P1;PMS_P2;Temp;Humidity;BMP_temperature;BMP_pressure;BME280_temperature;BME280_humidity;BME280_pressure;Samples;Min_cycle;Max_cycle;Signal;HPM_P1;HPM_P2
2024/04/16 00:03:46;;;;;;;;;14.67;14.67;;;;;;;;6491857;31;8913;-68
2024/04/16 00:09:52;;;;;;;;;13.67;12.67;;;;;;;;6492089;39;8858;-67
2024/04/16 00:15:58;;;;;;;;;14.67;13.33;;;;;;;;6490669;46;8889;-70
2024/04/16 00:22:03;;;;;;;;;15.33;11.00;;;;;;;;6490553;31;8981;-69
2024/04/16 00:28:31;;;;;;;;;15.33;15.33;;;;;;;;6490482;31;8872;-69
2024/04/16 00:34:33;;;;;;;;;10.00;9.67;;;;;;;;6491722;31;8929;-69
2024/04/16 00:40:40;;;;;;;;;13.67;13.67;;;;;;;;6491266;39;10284;-68
2024/04/16 00:46:45;;;;;;;;;12.33;10.67;;;;;;;;6491434;39;8910;-69
2024/04/16 00:52:51;;;;;;;;;12.00;11.00;;;;;;;;6490585;39;9068;-69
2024/04/16 00:58:56;;;;;;;;;12.67;10.33;;;;;;;;6490373;46;8980;-71
2024/04/16 01:05:02;;;;;;;;;11.33;10.67;;;;;;;;6491368;39;8849;-69
2024/04/16 01:11:04;;;;;;;;;14.33;11.67;;;;;;;;6490363;39;8902;-69
2024/04/16 01:17:07;;;;;;;;;10.33;10.33;;;;;;;;6491612;31;9598;-69
2024/04/16 01:23:08;;;;;;;;;12.33;11.00;;;;;;;;6491290;39;8918;-69
2024/04/16 01:29:16;;;;;;;;;6.00;6.00;;;;;;;;6490943;39;8986;-68
2024/04/16 01:35:30;;;;;;;;;11.33;10.67;;;;;;;;6493768;39;9475;-69
2024/04/16 01:41:37;;;;;;;;;11.00;9.67;;;;;;;;6492455;39;9608;-69
2024/04/16 01:47:44;;;;;;;;;10.67;10.67;;;;;;;;6490716;39;8918;-68
2024/04/16 01:53:49;;;;;;;;;11.00;11.00;;;;;;;;6489680;46;8908;-70
2024/04/16 01:59:54;;;;;;;;;12.67;12.67;;;;;;;;6489939;46;8941;-70
2024/04/16 02:06:05;;;;;;;;;11.33;10.33;;;;;;;;6490250;39;8881;-68
2024/04/16 02:12:10;;;;;;;;;12.50;11.00;;;;;;;;6488874;31;8993;-68
2024/04/16 02:18:14;;;;;;;;;13.33;12.67;;;;;;;;6490671;39;8900;-69
2024/04/16 02:24:19;;;;;;;;;16.67;14.00;;;;;;;;6489680;47;8958;-70
2024/04/16 02:30:24;;;;;;;;;11.67;11.67;;;;;;;;6489797;47;8897;-68
2024/04/16 02:36:38;;;;;;;;;11.67;11.00;;;;;;;;6489970;39;8981;-69
2024/04/16 02:42:54;;;;;;;;;17.67;14.00;;;;;;;;6490718;39;8845;-69
2024/04/16 02:48:57;;;;;;;;;12.00;12.00;;;;;;;;6491118;46;9127;-69
2024/04/16 02:55:02;;;;;;;;;13.00;13.00;;;;;;;;6491493;46;8955;-69
2024/04/16 03:01:05;;;;;;;;;12.67;12.67;;;;;;;;6492028;39;8909;-68
2024/04/16 03:07:11;;;;;;;;;16.00;13.00;;;;;;;;6490940;46;8919;-68
2024/04/16 03:13:22;;;;;;;;;13.00;13.00;;;;;;;;6491866;39;8932;-69
2024/04/16 03:19:28;;;;;;;;;14.67;13.00;;;;;;;;6492582;39;8983;-70
2024/04/16 03:25:41;;;;;;;;;17.67;14.33;;;;;;;;6491823;39;8898;-70
2024/04/16 03:31:47;;;;;;;;;13.67;11.33;;;;;;;;6492057;46;9016;-70
2024/04/16 03:37:53;;;;;;;;;16.00;16.00;;;;;;;;6492922;46;9013;-68
2024/04/16 03:43:57;;;;;;;;;18.00;16.67;;;;;;;;6491693;46;9245;-68
2024/04/16 03:50:01;;;;;;;;;12.00;12.00;;;;;;;;6491430;39;9019;-70
2024/04/16 03:56:05;;;;;;;;;14.00;13.33;;;;;;;;6490928;46;9038;-70
2024/04/16 04:02:19;;;;;;;;;14.67;13.67;;;;;;;;6471078;39;8954;-63
2024/04/16 04:08:22;;;;;;;;;15.00;13.33;;;;;;;;6493006;46;9083;-63
2024/04/16 04:14:26;;;;;;;;;15.33;14.67;;;;;;;;6492456;46;8890;-62
2024/04/16 04:20:30;;;;;;;;;16.67;16.67;;;;;;;;6494952;39;9476;-63
2024/04/16 04:26:35;;;;;;;;;16.67;15.00;;;;;;;;6494229;31;9461;-63
2024/04/16 04:32:38;;;;;;;;;17.67;16.00;;;;;;;;6492615;46;8911;-64
2024/04/16 04:38:42;;;;;;;;;20.33;18.00;;;;;;;;6493123;46;9009;-64
2024/04/16 04:44:45;;;;;;;;;20.33;18.00;;;;;;;;6492143;46;9079;-59
2024/04/16 04:50:46;;;;;;;;;17.33;16.00;;;;;;;;6494545;39;9049;-58
2024/04/16 04:56:48;;;;;;;;;18.00;16.33;;;;;;;;6492963;31;9008;-61
2024/04/16 05:02:53;;;;;;;;;15.00;15.00;;;;;;;;6492190;46;8966;-60
2024/04/16 05:08:54;;;;;;;;;16.00;15.33;;;;;;;;6492178;46;8932;-60
2024/04/16 05:14:56;;;;;;;;;15.00;15.00;;;;;;;;6493094;39;8907;-59
2024/04/16 05:20:59;;;;;;;;;17.00;16.00;;;;;;;;6494087;31;8940;-61
2024/04/16 05:27:01;;;;;;;;;17.33;17.33;;;;;;;;6492704;46;8961;-59
2024/04/16 05:33:02;;;;;;;;;20.00;17.67;;;;;;;;6493085;46;8865;-59
2024/04/16 05:39:03;;;;;;;;;18.00;15.00;;;;;;;;6492757;46;8851;-61
2024/04/16 05:45:06;;;;;;;;;16.67;13.67;;;;;;;;6491579;39;8919;-60
2024/04/16 05:51:13;;;;;;;;;20.00;18.67;;;;;;;;6489681;46;8921;-59
2024/04/16 05:57:16;;;;;;;;;18.00;18.00;;;;;;;;6490763;39;9050;-60
2024/04/16 06:03:18;;;;;;;;;20.67;20.00;;;;;;;;6492275;47;8913;-60
2024/04/16 06:09:22;;;;;;;;;19.67;19.00;;;;;;;;6492001;47;8919;-60
2024/04/16 06:15:24;;;;;;;;;20.00;18.67;;;;;;;;6490639;39;9016;-60
2024/04/16 06:21:25;;;;;;;;;19.33;19.33;;;;;;;;6492940;39;9725;-61
2024/04/16 06:27:26;;;;;;;;;21.33;21.00;;;;;;;;6493347;31;9004;-60
2024/04/16 06:33:33;;;;;;;;;23.33;21.00;;;;;;;;6492420;46;8874;-61
2024/04/16 06:39:35;;;;;;;;;26.00;25.67;;;;;;;;6487021;39;8950;-59
2024/04/16 06:45:45;;;;;;;;;20.00;19.00;;;;;;;;5990519;36;10012079;-61
2024/04/16 06:51:46;;;;;;;;;63.00;50.67;;;;;;;;5013002;39;22002165;-59
2024/04/16 06:57:48;;;;;;;;;26.00;24.33;;;;;;;;6492199;39;8900;-60
2024/04/16 07:03:51;;;;;;;;;21.25;20.25;;;;;;;;6491736;46;8939;-60
2024/04/16 07:09:52;;;;;;;;;29.00;28.75;;;;;;;;6491922;39;9077;-61
2024/04/16 07:15:55;;;;;;;;;20.25;18.50;;;;;;;;6490003;46;8951;-60
2024/04/16 07:22:01;;;;;;;;;54.33;45.33;;;;;;;;6489767;39;8919;-59
2024/04/16 07:28:03;;;;;;;;;28.00;28.00;;;;;;;;6488306;39;9659;-60
2024/04/16 07:34:05;;;;;;;;;27.00;23.75;;;;;;;;6491413;39;8873;-63
2024/04/16 07:40:06;;;;;;;;;49.67;41.67;;;;;;;;6490828;39;10043;-60
2024/04/16 07:46:07;;;;;;;;;22.50;18.75;;;;;;;;6487348;31;8974;-61
2024/04/16 07:52:10;;;;;;;;;29.33;27.00;;;;;;;;6491954;31;9057;-61
2024/04/16 07:58:18;;;;;;;;;22.75;21.00;;;;;;;;6491655;39;8916;-60
2024/04/16 08:04:21;;;;;;;;;27.00;24.75;;;;;;;;6490163;31;9013;-59
2024/04/16 08:10:24;;;;;;;;;33.00;31.50;;;;;;;;6489458;46;8999;-60
2024/04/16 08:16:29;;;;;;;;;37.33;31.67;;;;;;;;6489304;31;8904;-61
2024/04/16 08:22:31;;;;;;;;;22.75;18.25;;;;;;;;6490731;39;8926;-59
2024/04/16 08:28:33;;;;;;;;;19.25;17.75;;;;;;;;6490756;39;9011;-60
2024/04/16 08:34:40;;;;;;;;;24.75;23.25;;;;;;;;6489771;31;9130;-61
2024/04/16 08:40:45;;;;;;;;;20.50;20.25;;;;;;;;6489718;39;9024;-61
2024/04/16 08:46:48;;;;;;;;;28.75;25.50;;;;;;;;6490713;31;8962;-63
2024/04/16 08:52:50;;;;;;;;;32.75;29.75;;;;;;;;6489838;39;9040;-62
2024/04/16 08:58:52;;;;;;;;;30.00;24.50;;;;;;;;6488763;46;8896;-61
2024/04/16 09:05:00;;;;;;;;;22.00;22.00;;;;;;;;6488420;46;9075;-62
2024/04/16 09:11:01;;;;;;;;;30.25;27.50;;;;;;;;6488205;39;8917;-61
2024/04/16 09:17:03;;;;;;;;;20.75;19.00;;;;;;;;6487276;46;8924;-60
2024/04/16 09:23:08;;;;;;;;;25.25;25.25;;;;;;;;6487762;39;8927;-61
2024/04/16 09:29:10;;;;;;;;;21.00;21.00;;;;;;;;6488526;39;8948;-61
2024/04/16 09:35:15;;;;;;;;;20.50;18.00;;;;;;;;6487913;39;9044;-60
2024/04/16 09:41:16;;;;;;;;;17.25;15.50;;;;;;;;6487662;46;9051;-60
2024/04/16 09:47:19;;;;;;;;;16.75;16.25;;;;;;;;6488249;31;8911;-64
2024/04/16 09:53:25;;;;;;;;;14.75;13.00;;;;;;;;6488488;31;8947;-61
2024/04/16 09:59:28;;;;;;;;;20.75;20.00;;;;;;;;6489423;31;8923;-61
2024/04/16 10:05:31;;;;;;;;;22.25;22.25;;;;;;;;6489238;47;8945;-61
2024/04/16 10:11:36;;;;;;;;;20.75;18.75;;;;;;;;6487398;39;8939;-60
2024/04/16 10:17:58;;;;;;;;;19.50;18.00;;;;;;;;6487591;31;9025;-62
2024/04/16 10:24:09;;;;;;;;;19.75;19.75;;;;;;;;6488103;39;8943;-62
2024/04/16 10:30:15;;;;;;;;;23.50;21.00;;;;;;;;6488747;39;9025;-60
2024/04/16 10:36:18;;;;;;;;;23.75;21.00;;;;;;;;6487812;47;8940;-59
2024/04/16 10:42:27;;;;;;;;;18.25;17.75;;;;;;;;6488620;39;8895;-60
2024/04/16 10:48:28;;;;;;;;;18.50;16.50;;;;;;;;6485675;39;8985;-62
2024/04/16 10:54:29;;;;;;;;;16.25;16.25;;;;;;;;6488267;47;8987;-62
2024/04/16 11:00:32;;;;;;;;;17.50;16.50;;;;;;;;6486858;39;9719;-65
2024/04/16 11:06:35;;;;;;;;;14.00;14.00;;;;;;;;6489391;39;8888;-62
2024/04/16 11:12:39;;;;;;;;;12.33;11.00;;;;;;;;6491191;46;8976;-61
2024/04/16 11:18:44;;;;;;;;;17.75;16.75;;;;;;;;6489041;31;9170;-62
2024/04/16 11:24:46;;;;;;;;;17.75;16.25;;;;;;;;6487003;46;8990;-61
2024/04/16 11:30:56;;;;;;;;;22.75;22.75;;;;;;;;6488552;31;9035;-63
2024/04/16 11:36:57;;;;;;;;;21.00;17.50;;;;;;;;6490080;39;8903;-63
2024/04/16 11:43:06;;;;;;;;;17.25;15.50;;;;;;;;6488874;31;8958;-61
2024/04/16 11:49:09;;;;;;;;;43.25;35.75;;;;;;;;6485966;39;8993;-61
2024/04/16 11:55:13;;;;;;;;;52.00;43.25;;;;;;;;6486789;31;8909;-61
2024/04/16 12:01:16;;;;;;;;;54.75;43.75;;;;;;;;6482737;46;9067;-61
2024/04/16 12:07:20;;;;;;;;;13.75;13.75;;;;;;;;6489559;39;8944;-63
2024/04/16 12:13:26;;;;;;;;;18.00;15.50;;;;;;;;6488852;46;8974;-61
2024/04/16 12:19:30;;;;;;;;;15.00;14.00;;;;;;;;6488476;39;9067;-63
2024/04/16 12:25:36;;;;;;;;;18.25;14.50;;;;;;;;6488157;46;9046;-63
2024/04/16 12:31:39;;;;;;;;;28.50;24.25;;;;;;;;6489558;39;9485;-64
2024/04/16 12:37:41;;;;;;;;;20.00;19.00;;;;;;;;6489623;39;8928;-62
2024/04/16 12:43:45;;;;;;;;;15.75;12.50;;;;;;;;6490993;39;8918;-62
2024/04/16 12:49:46;;;;;;;;;19.25;17.25;;;;;;;;6487478;31;8923;-61
2024/04/16 12:55:47;;;;;;;;;15.00;13.00;;;;;;;;6488536;46;8885;-62
2024/04/16 13:01:48;;;;;;;;;19.50;17.50;;;;;;;;6490499;39;8959;-62
2024/04/16 13:07:49;;;;;;;;;8.25;8.25;;;;;;;;6489240;46;8931;-62
2024/04/16 13:13:51;;;;;;;;;12.25;11.75;;;;;;;;6485165;39;8888;-59
2024/04/16 13:19:52;;;;;;;;;18.00;14.50;;;;;;;;6488753;39;8935;-63
2024/04/16 13:25:54;;;;;;;;;16.00;13.25;;;;;;;;6489107;31;8986;-61
2024/04/16 13:31:57;;;;;;;;;16.00;14.00;;;;;;;;6489362;31;8936;-62
2024/04/16 13:37:59;;;;;;;;;20.50;18.75;;;;;;;;6490176;39;8932;-61
2024/04/16 13:43:59;;;;;;;;;18.25;17.00;;;;;;;;6489692;31;8885;-65
2024/04/16 13:50:01;;;;;;;;;29.50;23.00;;;;;;;;6490103;39;8986;-60
2024/04/16 13:56:04;;;;;;;;;18.50;17.50;;;;;;;;6489491;31;9018;-62
2024/04/16 14:02:08;;;;;;;;;18.25;15.50;;;;;;;;6490473;39;9066;-62
2024/04/16 14:08:09;;;;;;;;;16.75;13.75;;;;;;;;6488841;47;9111;-62
2024/04/16 14:14:13;;;;;;;;;18.00;16.75;;;;;;;;6490202;39;8874;-61
2024/04/16 14:20:16;;;;;;;;;17.25;16.25;;;;;;;;6489074;39;8936;-62
2024/04/16 14:26:18;;;;;;;;;17.50;16.50;;;;;;;;6489162;39;9079;-59
2024/04/16 14:32:24;;;;;;;;;22.33;14.33;;;;;;;;6490391;39;8974;-61
2024/04/16 14:38:28;;;;;;;;;20.50;17.75;;;;;;;;6489317;31;9066;-61
2024/04/16 14:44:30;;;;;;;;;24.25;17.25;;;;;;;;6491028;39;9630;-61
2024/04/16 14:50:42;;;;;;;;;18.75;16.25;;;;;;;;6491636;46;9088;-61
2024/04/16 14:56:46;;;;;;;;;16.75;14.25;;;;;;;;6491690;39;8942;-61
2024/04/16 15:02:50;;;;;;;;;36.00;28.75;;;;;;;;6490479;39;8964;-61
2024/04/16 15:08:51;;;;;;;;;33.50;30.25;;;;;;;;6492417;31;9085;-62
2024/04/16 15:14:55;;;;;;;;;20.25;14.75;;;;;;;;6490041;46;9036;-60
2024/04/16 15:20:57;;;;;;;;;22.75;17.00;;;;;;;;6491447;46;8904;-61
2024/04/16 15:26:58;;;;;;;;;22.50;19.25;;;;;;;;6491566;46;8984;-61
2024/04/16 15:33:01;;;;;;;;;19.25;15.50;;;;;;;;6491538;46;8952;-60
2024/04/16 15:39:03;;;;;;;;;20.50;16.50;;;;;;;;6490165;46;8955;-62
2024/04/16 15:45:11;;;;;;;;;27.75;17.75;;;;;;;;6490597;46;8937;-59
2024/04/16 15:51:13;;;;;;;;;17.50;14.00;;;;;;;;6490409;39;8920;-60
2024/04/16 15:57:14;;;;;;;;;26.00;16.75;;;;;;;;6490668;46;8969;-60
2024/04/16 16:03:16;;;;;;;;;31.25;29.50;;;;;;;;6491361;31;8938;-62
2024/04/16 16:09:17;;;;;;;;;27.50;20.00;;;;;;;;6492143;31;9533;-60
2024/04/16 16:15:21;;;;;;;;;23.00;21.00;;;;;;;;6490753;31;8978;-60
2024/04/16 16:21:25;;;;;;;;;21.75;15.00;;;;;;;;6490887;46;8875;-59
2024/04/16 16:27:27;;;;;;;;;22.00;18.50;;;;;;;;6490931;31;9026;-62
2024/04/16 16:33:32;;;;;;;;;22.75;21.75;;;;;;;;6490486;39;8907;-60
2024/04/16 16:39:34;;;;;;;;;18.00;15.50;;;;;;;;6490890;46;8928;-61
2024/04/16 16:45:36;;;;;;;;;21.25;17.25;;;;;;;;6490580;39;8934;-60
2024/04/16 16:51:38;;;;;;;;;21.50;15.50;;;;;;;;6491926;39;8923;-60
2024/04/16 16:57:39;;;;;;;;;24.25;16.25;;;;;;;;6490479;31;9063;-60
2024/04/16 17:03:42;;;;;;;;;18.25;16.50;;;;;;;;6490296;46;8909;-62
2024/04/16 17:09:45;;;;;;;;;22.75;20.25;;;;;;;;6490824;39;8972;-59
2024/04/16 17:15:50;;;;;;;;;22.25;20.75;;;;;;;;6491583;31;9626;-59
2024/04/16 17:21:52;;;;;;;;;15.50;15.50;;;;;;;;6490818;46;9048;-63
2024/04/16 17:27:56;;;;;;;;;22.00;16.25;;;;;;;;6490614;46;8934;-62
2024/04/16 17:33:59;;;;;;;;;23.50;18.75;;;;;;;;6490608;39;8937;-64
2024/04/16 17:40:00;;;;;;;;;23.00;17.75;;;;;;;;6487834;31;9100;-64
2024/04/16 17:46:05;;;;;;;;;20.33;15.33;;;;;;;;6489619;39;8878;-64
2024/04/16 17:52:08;;;;;;;;;22.75;19.75;;;;;;;;6490132;39;9096;-66
2024/04/16 17:58:09;;;;;;;;;18.25;16.25;;;;;;;;6490879;39;8909;-64
2024/04/16 18:04:12;;;;;;;;;21.25;17.25;;;;;;;;6490139;39;9016;-64
2024/04/16 18:10:13;;;;;;;;;20.00;16.50;;;;;;;;6490647;39;8906;-62
2024/04/16 18:16:16;;;;;;;;;19.75;16.00;;;;;;;;6490971;39;8881;-65
2024/04/16 18:22:18;;;;;;;;;20.50;16.25;;;;;;;;6491824;39;9442;-64
2024/04/16 18:28:22;;;;;;;;;16.75;14.25;;;;;;;;6491967;46;8969;-65
2024/04/16 18:34:24;;;;;;;;;12.75;12.50;;;;;;;;6493103;46;8960;-65
2024/04/16 18:40:29;;;;;;;;;19.25;17.00;;;;;;;;6491495;39;8854;-63
2024/04/16 18:46:36;;;;;;;;;20.25;16.50;;;;;;;;6492236;39;8916;-65
2024/04/16 18:52:43;;;;;;;;;14.25;12.50;;;;;;;;6491520;39;8862;-65
2024/04/16 18:58:44;;;;;;;;;21.50;18.25;;;;;;;;6491395;31;8928;-63
2024/04/16 19:04:45;;;;;;;;;18.00;15.50;;;;;;;;6491524;46;8952;-64
2024/04/16 19:10:46;;;;;;;;;21.00;18.75;;;;;;;;6490586;39;10021;-66
2024/04/16 19:16:49;;;;;;;;;29.50;21.75;;;;;;;;6492785;39;8908;-64
2024/04/16 19:22:50;;;;;;;;;28.00;23.75;;;;;;;;6491236;31;8859;-62
2024/04/16 19:28:51;;;;;;;;;25.50;20.25;;;;;;;;6491392;31;8882;-63
2024/04/16 19:34:52;;;;;;;;;23.00;17.50;;;;;;;;6491727;39;8858;-65
2024/04/16 19:40:53;;;;;;;;;18.75;14.00;;;;;;;;6492019;31;8865;-65
2024/04/16 19:46:56;;;;;;;;;17.75;16.00;;;;;;;;6491437;39;8934;-63
2024/04/16 19:52:59;;;;;;;;;22.75;18.00;;;;;;;;6491408;39;9057;-65
2024/04/16 19:59:01;;;;;;;;;29.00;20.00;;;;;;;;6490603;46;8959;-64
2024/04/16 20:05:03;;;;;;;;;20.25;15.50;;;;;;;;6492119;31;8967;-64
2024/04/16 20:11:05;;;;;;;;;21.25;15.25;;;;;;;;6491127;39;9005;-64
2024/04/16 20:17:08;;;;;;;;;24.25;20.75;;;;;;;;6490792;39;9493;-65
2024/04/16 20:23:18;;;;;;;;;19.75;15.75;;;;;;;;6491185;39;9537;-63
2024/04/16 20:29:20;;;;;;;;;15.75;14.00;;;;;;;;6490397;46;9130;-65
2024/04/16 20:35:30;;;;;;;;;21.00;16.50;;;;;;;;6491187;31;8921;-63
2024/04/16 20:41:33;;;;;;;;;14.25;12.00;;;;;;;;6490320;46;8840;-65
2024/04/16 20:47:36;;;;;;;;;20.50;16.50;;;;;;;;6491002;46;8893;-64
2024/04/16 20:53:37;;;;;;;;;19.50;17.50;;;;;;;;6490866;31;8968;-64
2024/04/16 20:59:38;;;;;;;;;21.00;15.75;;;;;;;;6490217;39;8905;-65
2024/04/16 21:05:40;;;;;;;;;20.75;12.25;;;;;;;;6491272;31;9797;-63
2024/04/16 21:11:41;;;;;;;;;21.75;17.00;;;;;;;;6491485;31;9103;-61
2024/04/16 21:17:44;;;;;;;;;14.00;9.25;;;;;;;;6490629;39;8913;-64
2024/04/16 21:23:48;;;;;;;;;16.00;12.50;;;;;;;;6490896;39;9513;-62
2024/04/16 21:29:52;;;;;;;;;15.25;13.75;;;;;;;;6490205;46;8909;-63
2024/04/16 21:35:55;;;;;;;;;14.50;12.75;;;;;;;;6490846;39;8981;-64
2024/04/16 21:41:58;;;;;;;;;18.00;14.00;;;;;;;;6490197;39;8876;-63
2024/04/16 21:48:03;;;;;;;;;15.75;11.75;;;;;;;;6490148;46;8873;-63
2024/04/16 21:54:06;;;;;;;;;18.50;13.00;;;;;;;;6490641;39;9028;-64
2024/04/16 22:00:09;;;;;;;;;18.50;14.25;;;;;;;;6489818;47;9000;-65
2024/04/16 22:06:12;;;;;;;;;18.67;11.67;;;;;;;;6490538;47;8900;-64
2024/04/16 22:12:15;;;;;;;;;14.00;13.25;;;;;;;;6490562;39;9012;-63
2024/04/16 22:18:16;;;;;;;;;18.75;14.50;;;;;;;;6490733;39;8933;-62
2024/04/16 22:24:17;;;;;;;;;12.00;9.00;;;;;;;;6490847;39;8848;-63
2024/04/16 22:30:25;;;;;;;;;11.75;9.50;;;;;;;;6490021;39;9025;-63
2024/04/16 22:36:38;;;;;;;;;14.00;8.00;;;;;;;;2970174;36;10010379;-64
2024/04/16 22:42:41;;;;;;;;;18.00;10.00;;;;;;;;6306934;39;10000001;-65
2024/04/16 22:48:45;;;;;;;;;13.33;11.00;;;;;;;;6486512;39;8894;-63
2024/04/16 22:54:51;;;;;;;;;19.00;14.00;;;;;;;;6486444;39;9058;-62
2024/04/16 23:00:52;;;;;;;;;15.33;10.00;;;;;;;;6486483;39;9376;-65
2024/04/16 23:06:56;;;;;;;;;13.67;12.67;;;;;;;;6488736;31;9002;-63
2024/04/16 23:13:07;;;;;;;;;13.00;8.67;;;;;;;;6490266;39;8925;-63
2024/04/16 23:19:14;;;;;;;;;7.33;7.33;;;;;;;;6492126;39;8962;-63
2024/04/16 23:25:19;;;;;;;;;9.00;7.00;;;;;;;;6492233;31;9551;-63
2024/04/16 23:31:20;;;;;;;;;7.00;6.00;;;;;;;;6491480;46;8921;-63
2024/04/16 23:37:23;;;;;;;;;9.33;7.33;;;;;;;;6491581;39;9592;-63
2024/04/16 23:43:25;;;;;;;;;7.33;6.00;;;;;;;;6490335;46;8875;-63
2024/04/16 23:49:29;;;;;;;;;10.00;7.00;;;;;;;;6491238;39;8949;-63
2024/04/16 23:55:30;;;;;;;;;7.00;6.33;;;;;;;;6491094;31;8981;-62
